createdAt,value
2023-04-15T00:01:46.203Z,99401.53
2023-04-15T00:04:49.306Z,99402.03
2023-04-15T00:07:52.152Z,99399.75
2023-04-15T00:10:54.963Z,99408.50
2023-04-15T00:13:58.597Z,99401.75
2023-04-15T00:17:01.834Z,99408.44
2023-04-15T00:20:06.380Z,99403.25
2023-04-15T00:23:09.544Z,99409.06
2023-04-15T00:26:12.667Z,99405.59
2023-04-15T00:29:16.803Z,99408.22
2023-04-15T00:32:20.321Z,99406.53
2023-04-15T00:35:24.097Z,99400.56
2023-04-15T00:38:26.820Z,99410.12
2023-04-15T00:41:29.852Z,99402.19
2023-04-15T00:44:33.350Z,99406.47
2023-04-15T00:47:37.785Z,99404.00
2023-04-15T00:50:44.778Z,99399.66
2023-04-15T00:53:47.676Z,99403.72
2023-04-15T00:56:50.289Z,99397.88
2023-04-15T00:59:55.992Z,99390.03
2023-04-15T01:02:58.794Z,99393.00
2023-04-15T01:06:04.192Z,99393.06
2023-04-15T01:09:06.824Z,99392.88
2023-04-15T01:12:14.305Z,99383.34
2023-04-15T01:15:17.142Z,99380.75
2023-04-15T01:18:20.980Z,99379.12
2023-04-15T01:21:23.940Z,99379.25
2023-04-15T01:24:28.295Z,99370.81
2023-04-15T01:27:31.293Z,99378.28
2023-04-15T01:30:35.084Z,99384.28
2023-04-15T01:33:38.538Z,99380.81
2023-04-15T01:36:42.071Z,99389.38
2023-04-15T01:39:44.812Z,99387.72
2023-04-15T01:42:47.657Z,99389.09
2023-04-15T01:45:51.759Z,99386.38
2023-04-15T01:48:54.762Z,99389.13
2023-04-15T01:51:57.262Z,99397.63
2023-04-15T01:55:00.451Z,99394.94
2023-04-15T01:58:03.564Z,99397.47
2023-04-15T02:01:07.020Z,99388.38
2023-04-15T02:04:16.528Z,99389.31
2023-04-15T02:07:19.665Z,99394.28
2023-04-15T02:10:23.223Z,99399.37
2023-04-15T02:13:25.811Z,99391.94
2023-04-15T02:16:28.695Z,99390.84
2023-04-15T02:19:31.271Z,99394.28
2023-04-15T02:22:34.907Z,99390.84
2023-04-15T02:25:39.073Z,99393.50
2023-04-15T02:28:44.630Z,99389.22
2023-04-15T02:31:51.306Z,99387.03
2023-04-15T02:34:54.089Z,99390.56
2023-04-15T02:37:57.281Z,99394.91
2023-04-15T02:41:00.234Z,99407.88
2023-04-15T02:44:04.264Z,99397.44
2023-04-15T02:47:07.470Z,99407.22
2023-04-15T02:50:12.898Z,99404.94
2023-04-15T02:53:16.155Z,99405.53
2023-04-15T02:56:19.900Z,99407.13
2023-04-15T02:59:23.041Z,99400.31
2023-04-15T03:02:25.994Z,99398.47
2023-04-15T03:05:29.023Z,99397.59
2023-04-15T03:08:32.273Z,99394.28
2023-04-15T03:11:37.041Z,99389.06
2023-04-15T03:14:40.052Z,99390.50
2023-04-15T03:17:42.994Z,99396.25
2023-04-15T03:20:45.809Z,99383.94
2023-04-15T03:23:48.884Z,99393.59
2023-04-15T03:26:51.529Z,99389.41
2023-04-15T03:29:54.640Z,99392.69
2023-04-15T03:32:59.229Z,99390.97
2023-04-15T03:36:02.191Z,99384.75
2023-04-15T03:39:05.167Z,99387.34
2023-04-15T03:42:07.967Z,99392.06
2023-04-15T03:45:11.083Z,99399.66
2023-04-15T03:48:17.676Z,99403.81
2023-04-15T03:51:20.962Z,99401.09
2023-04-15T03:54:24.168Z,99402.53
2023-04-15T03:57:26.709Z,99398.81
2023-04-15T04:00:29.547Z,99391.69
2023-04-15T04:03:32.581Z,99394.97
2023-04-15T04:06:35.438Z,99384.03
2023-04-15T04:09:40.635Z,99385.19
2023-04-15T04:12:43.219Z,99381.56
2023-04-15T04:15:46.244Z,99387.62
2023-04-15T04:18:48.895Z,99387.22
2023-04-15T04:21:52.452Z,99386.53
2023-04-15T04:24:55.118Z,99383.13
2023-04-15T04:27:58.022Z,99384.75
2023-04-15T04:31:00.830Z,99382.75
2023-04-15T04:34:03.751Z,99388.41
2023-04-15T04:37:06.991Z,99381.41
2023-04-15T04:40:10.711Z,99390.25
2023-04-15T04:43:13.344Z,99390.63
2023-04-15T04:46:16.234Z,99390.59
2023-04-15T04:49:18.838Z,99393.53
2023-04-15T04:52:21.710Z,99388.41
2023-04-15T04:55:24.424Z,99385.22
2023-04-15T04:58:27.430Z,99385.16
2023-04-15T05:01:30.329Z,99393.88
2023-04-15T05:04:33.404Z,99385.41
2023-04-15T05:07:36.180Z,99383.28
2023-04-15T05:10:39.177Z,99383.69
2023-04-15T05:13:41.800Z,99388.53
2023-04-15T05:16:44.653Z,99391.31
2023-04-15T05:19:47.237Z,99391.09
2023-04-15T05:22:50.026Z,99382.19
2023-04-15T05:25:52.501Z,99389.81
2023-04-15T05:28:55.554Z,99390.22
2023-04-15T05:31:58.229Z,99393.72
2023-04-15T05:35:01.208Z,99391.72
2023-04-15T05:38:03.827Z,99392.06
2023-04-15T05:41:06.868Z,99394.31
2023-04-15T05:44:09.931Z,99391.81
2023-04-15T05:47:12.722Z,99393.16
2023-04-15T05:50:15.711Z,99393.13
2023-04-15T05:53:18.818Z,99396.38
2023-04-15T05:56:22.185Z,99404.09
2023-04-15T05:59:25.276Z,99399.53
2023-04-15T06:02:28.014Z,99410.00
2023-04-15T06:05:31.008Z,99404.91
2023-04-15T06:08:33.583Z,99410.62
2023-04-15T06:11:36.766Z,99420.38
2023-04-15T06:14:40.621Z,99412.78
2023-04-15T06:17:43.467Z,99416.59
2023-04-15T06:20:46.432Z,99426.38
2023-04-15T06:23:49.369Z,99430.69
2023-04-15T06:26:51.984Z,99430.25
2023-04-15T06:29:54.841Z,99436.50
2023-04-15T06:32:57.583Z,99430.47
2023-04-15T06:36:00.908Z,99435.38
2023-04-15T06:39:03.714Z,99436.50
2023-04-15T06:42:06.921Z,99437.69
2023-04-15T06:45:09.870Z,99440.53
2023-04-15T06:48:12.793Z,99450.78
2023-04-15T06:51:15.328Z,99445.50
2023-04-15T06:54:18.297Z,99452.19
2023-04-15T06:57:20.887Z,99450.78
2023-04-15T07:00:23.781Z,99457.19
2023-04-15T07:03:27.141Z,99449.81
2023-04-15T07:06:30.038Z,99447.91
2023-04-15T07:09:34.251Z,99450.66
2023-04-15T07:12:37.607Z,99453.28
2023-04-15T07:15:40.233Z,99456.72
2023-04-15T07:18:43.586Z,99456.31
2023-04-15T07:21:47.206Z,99458.31
2023-04-15T07:24:50.353Z,99457.72
2023-04-15T07:27:53.249Z,99460.09
2023-04-15T07:30:57.370Z,99451.47
2023-04-15T07:34:00.177Z,99458.31
2023-04-15T07:37:03.525Z,99459.56
2023-04-15T07:40:07.361Z,99454.56
2023-04-15T07:43:10.872Z,99460.94
2023-04-15T07:46:13.564Z,99459.87
2023-04-15T07:49:16.771Z,99464.34
2023-04-15T07:52:19.590Z,99461.88
2023-04-15T07:55:23.484Z,99467.34
2023-04-15T07:58:28.622Z,99455.22
2023-04-15T08:01:31.684Z,99458.53
2023-04-15T08:04:34.883Z,99459.25
2023-04-15T08:07:38.433Z,99464.34
2023-04-15T08:10:41.294Z,99462.25
2023-04-15T08:13:44.025Z,99462.88
2023-04-15T08:16:47.013Z,99464.50
2023-04-15T08:19:49.603Z,99463.22
2023-04-15T08:22:52.734Z,99458.66
2023-04-15T08:25:55.366Z,99462.34
2023-04-15T08:28:58.581Z,99465.34
2023-04-15T08:32:01.792Z,99464.66
2023-04-15T08:35:05.053Z,99474.91
2023-04-15T08:38:07.737Z,99471.41
2023-04-15T08:41:27.202Z,99465.16
2023-04-15T08:44:33.439Z,99470.38
2023-04-15T08:47:38.856Z,99478.47
2023-04-15T08:50:42.109Z,99474.44
2023-04-15T08:53:47.520Z,99473.56
2023-04-15T08:56:50.583Z,99484.13
2023-04-15T08:59:56.029Z,99481.22
2023-04-15T09:02:59.805Z,99476.94
2023-04-15T09:06:05.018Z,99481.53
2023-04-15T09:09:08.028Z,99484.44
2023-04-15T09:12:11.658Z,99487.28
2023-04-15T09:15:16.398Z,99485.44
2023-04-15T09:18:33.732Z,99479.62
2023-04-15T09:21:36.362Z,99486.59
2023-04-15T09:24:42.341Z,99486.81
2023-04-15T09:27:51.742Z,99488.13
2023-04-15T09:30:59.103Z,99485.97
2023-04-15T09:34:02.044Z,99487.41
2023-04-15T09:37:05.237Z,99482.50
2023-04-15T09:40:10.078Z,99480.47
2023-04-15T09:43:13.668Z,99478.06
2023-04-15T09:46:16.270Z,99486.31
2023-04-15T09:49:20.850Z,99481.72
2023-04-15T09:52:23.916Z,99474.06
2023-04-15T09:55:27.306Z,99486.09
2023-04-15T09:58:32.007Z,99479.88
2023-04-15T10:01:36.161Z,99483.41
2023-04-15T10:04:41.634Z,99491.50
2023-04-15T10:07:45.852Z,99488.25
2023-04-15T10:10:49.244Z,99493.78
2023-04-15T10:13:52.478Z,99491.97
2023-04-15T10:16:59.011Z,99500.31
2023-04-15T10:20:04.943Z,99497.56
2023-04-15T10:23:10.946Z,99503.47
2023-04-15T10:26:17.325Z,99492.34
2023-04-15T10:29:20.703Z,99498.53
2023-04-15T10:32:25.563Z,99491.59
2023-04-15T10:35:30.815Z,99496.84
2023-04-15T10:38:42.589Z,99499.94
2023-04-15T10:41:45.484Z,99509.97
2023-04-15T10:44:56.633Z,99509.44
2023-04-15T10:48:03.738Z,99504.66
2023-04-15T10:51:07.209Z,99511.41
2023-04-15T10:54:14.382Z,99508.59
2023-04-15T10:57:23.838Z,99521.37
2023-04-15T11:00:30.054Z,99514.41
2023-04-15T11:03:41.000Z,99522.25
2023-04-15T11:06:45.695Z,99523.78
2023-04-15T11:09:48.287Z,99527.44
2023-04-15T11:13:05.613Z,99530.81
2023-04-15T11:16:08.513Z,99537.44
2023-04-15T11:19:12.281Z,99535.06
2023-04-15T11:22:14.813Z,99530.97
2023-04-15T11:25:28.509Z,99528.37
2023-04-15T11:28:32.799Z,99532.19
2023-04-15T11:31:36.057Z,99529.56
2023-04-15T11:34:38.684Z,99527.44
2023-04-15T11:37:41.923Z,99523.22
2023-04-15T11:40:47.231Z,99527.47
2023-04-15T11:43:51.764Z,99528.78
2023-04-15T11:46:55.454Z,99539.28
2023-04-15T11:49:58.315Z,99536.19
2023-04-15T11:53:03.366Z,99535.25
2023-04-15T11:56:08.057Z,99537.47
2023-04-15T11:59:10.660Z,99533.06
2023-04-15T12:02:14.536Z,99538.16
2023-04-15T12:05:17.792Z,99535.37
2023-04-15T12:08:20.617Z,99541.00
2023-04-15T12:11:26.324Z,99537.50
2023-04-15T12:14:33.433Z,99542.44
2023-04-15T12:17:51.330Z,99551.41
2023-04-15T12:20:54.750Z,99545.94
2023-04-15T12:23:58.329Z,99552.78
2023-04-15T12:27:08.578Z,99540.03
2023-04-15T12:30:11.895Z,99546.72
2023-04-15T12:33:14.712Z,99544.06
2023-04-15T12:36:17.741Z,99551.94
2023-04-15T12:39:29.283Z,99551.25
2023-04-15T12:42:33.557Z,99553.88
2023-04-15T12:45:36.072Z,99544.50
2023-04-15T12:48:39.934Z,99547.41
2023-04-15T12:51:42.860Z,99548.00
2023-04-15T12:54:45.815Z,99553.50
2023-04-15T12:57:48.759Z,99563.16
2023-04-15T13:00:51.827Z,99555.03
2023-04-15T13:03:54.569Z,99568.50
2023-04-15T13:06:57.632Z,99562.03
2023-04-15T13:10:00.453Z,99555.25
2023-04-15T13:13:05.227Z,99564.22
2023-04-15T13:16:08.208Z,99569.69
2023-04-15T13:19:11.282Z,99570.78
2023-04-15T13:22:15.181Z,99569.25
2023-04-15T13:25:18.342Z,99567.50
2023-04-15T13:28:21.266Z,99567.56
2023-04-15T13:31:24.165Z,99571.53
2023-04-15T13:34:26.757Z,99574.47
2023-04-15T13:37:30.671Z,99571.88
2023-04-15T13:40:33.364Z,99577.47
2023-04-15T13:43:36.723Z,99578.88
2023-04-15T13:46:40.588Z,99574.16
2023-04-15T13:49:44.045Z,99585.03
2023-04-15T13:52:46.938Z,99589.66
2023-04-15T13:55:50.074Z,99582.28
2023-04-15T13:58:53.044Z,99589.94
2023-04-15T14:01:56.368Z,99590.97
2023-04-15T14:04:59.348Z,99594.41
2023-04-15T14:08:01.941Z,99586.06
2023-04-15T14:11:05.343Z,99590.53
2023-04-15T14:14:08.180Z,99594.94
2023-04-15T14:17:11.116Z,99598.13
2023-04-15T14:20:16.281Z,99605.69
2023-04-15T14:23:20.107Z,99602.84
2023-04-15T14:26:22.635Z,99600.69
2023-04-15T14:29:26.223Z,99605.97
2023-04-15T14:32:28.797Z,99610.78
2023-04-15T14:35:31.738Z,99607.97
2023-04-15T14:38:40.605Z,99612.22
2023-04-15T14:41:43.461Z,99613.88
2023-04-15T14:44:46.408Z,99619.50
2023-04-15T14:47:49.363Z,99615.59
2023-04-15T14:50:52.469Z,99621.91
2023-04-15T14:53:55.695Z,99626.28
2023-04-15T14:56:58.652Z,99620.69
2023-04-15T15:00:01.734Z,99625.09
2023-04-15T15:03:12.555Z,99625.22
2023-04-15T15:06:15.811Z,99619.87
2023-04-15T15:09:19.803Z,99625.50
2023-04-15T15:12:23.921Z,99628.25
2023-04-15T15:15:29.086Z,99632.06
2023-04-15T15:18:32.398Z,99623.44
2023-04-15T15:21:35.025Z,99635.59
2023-04-15T15:24:38.067Z,99635.22
2023-04-15T15:27:40.659Z,99648.00
2023-04-15T15:30:43.562Z,99652.53
2023-04-15T15:33:46.518Z,99647.16
2023-04-15T15:36:49.443Z,99658.22
2023-04-15T15:39:53.213Z,99657.00
2023-04-15T15:42:56.128Z,99660.44
2023-04-15T15:45:58.720Z,99663.59
2023-04-15T15:49:03.705Z,99678.75
2023-04-15T15:52:06.692Z,99675.03
2023-04-15T15:55:09.696Z,99681.53
2023-04-15T15:58:12.305Z,99675.31
2023-04-15T16:01:15.349Z,99680.78
2023-04-15T16:04:18.451Z,99683.84
2023-04-15T16:07:21.343Z,99688.94
2023-04-15T16:10:24.307Z,99694.75
2023-04-15T16:13:27.692Z,99691.75
2023-04-15T16:16:30.627Z,99701.59
2023-04-15T16:19:33.213Z,99700.50
2023-04-15T16:22:36.414Z,99702.75
2023-04-15T16:25:39.064Z,99709.44
2023-04-15T16:28:42.279Z,99709.88
2023-04-15T16:31:45.001Z,99710.19
2023-04-15T16:34:47.947Z,99714.53
2023-04-15T16:37:50.452Z,99711.50
2023-04-15T16:40:54.047Z,99716.28
2023-04-15T16:43:57.513Z,99712.28
2023-04-15T16:47:02.279Z,99715.25
2023-04-15T16:50:05.625Z,99724.91
2023-04-15T16:53:08.469Z,99723.88
2023-04-15T16:56:11.150Z,99734.44
2023-04-15T16:59:13.973Z,99733.28
2023-04-15T17:02:16.715Z,99742.72
2023-04-15T17:05:19.621Z,99749.69
2023-04-15T17:08:22.181Z,99750.41
2023-04-15T17:11:25.039Z,99760.88
2023-04-15T17:14:28.959Z,99764.28
2023-04-15T17:17:31.934Z,99759.28
2023-04-15T17:20:34.569Z,99756.19
2023-04-15T17:23:37.448Z,99765.00
2023-04-15T17:26:40.111Z,99772.50
2023-04-15T17:29:43.042Z,99781.47
2023-04-15T17:32:45.875Z,99783.31
2023-04-15T17:35:48.782Z,99784.38
2023-04-15T17:38:51.389Z,99794.81
2023-04-15T17:41:54.354Z,99795.34
2023-04-15T17:44:56.937Z,99795.03
2023-04-15T17:48:02.478Z,99797.09
2023-04-15T17:51:05.115Z,99800.97
2023-04-15T17:54:08.091Z,99811.72
2023-04-15T17:57:10.692Z,99811.16
2023-04-15T18:00:14.274Z,99812.56
2023-04-15T18:03:16.849Z,99815.44
2023-04-15T18:06:21.953Z,99819.50
2023-04-15T18:09:24.731Z,99826.16
2023-04-15T18:12:28.195Z,99819.28
2023-04-15T18:15:31.485Z,99828.41
2023-04-15T18:18:34.504Z,99827.06
2023-04-15T18:21:37.108Z,99833.50
2023-04-15T18:24:40.266Z,99836.38
2023-04-15T18:27:43.098Z,99844.19
2023-04-15T18:30:46.073Z,99848.22
2023-04-15T18:33:49.286Z,99853.66
2023-04-15T18:36:52.180Z,99859.03
2023-04-15T18:39:55.125Z,99869.66
2023-04-15T18:42:58.003Z,99875.78
2023-04-15T18:46:01.866Z,99875.91
2023-04-15T18:49:04.947Z,99884.78
2023-04-15T18:52:09.566Z,99892.63
2023-04-15T18:55:12.454Z,99891.91
2023-04-15T18:58:15.570Z,99898.28
2023-04-15T19:01:35.616Z,99896.16
2023-04-15T19:04:38.520Z,99909.37
2023-04-15T19:07:41.741Z,99907.97
2023-04-15T19:10:44.449Z,99916.03
2023-04-15T19:13:47.474Z,99911.16
2023-04-15T19:16:50.163Z,99923.59
2023-04-15T19:19:53.103Z,99932.28
2023-04-15T19:22:55.882Z,99936.84
2023-04-15T19:25:59.077Z,99945.66
2023-04-15T19:29:01.641Z,99944.81
2023-04-15T19:32:05.597Z,99943.00
2023-04-15T19:35:10.789Z,99937.81
2023-04-15T19:38:14.549Z,99952.53
2023-04-15T19:41:17.062Z,99950.75
2023-04-15T19:44:20.275Z,99950.75
2023-04-15T19:47:23.316Z,99956.44
2023-04-15T19:50:27.728Z,99955.72
2023-04-15T19:53:30.518Z,99964.34
2023-04-15T19:56:34.531Z,99963.56
2023-04-15T19:59:37.753Z,99966.00
2023-04-15T20:02:40.889Z,99965.44
2023-04-15T20:05:44.042Z,99972.25
2023-04-15T20:08:46.600Z,99975.47
2023-04-15T20:12:47.817Z,99978.81
2023-04-15T20:15:12.092Z,99982.81
2023-04-15T20:18:14.995Z,99991.47
2023-04-15T20:21:17.594Z,99990.47
2023-04-15T20:24:24.215Z,99985.22
2023-04-15T20:27:26.851Z,99988.59
2023-04-15T20:30:29.841Z,99984.13
2023-04-15T20:33:32.346Z,99988.41
2023-04-15T20:36:35.596Z,100000.47
2023-04-15T20:39:38.775Z,99996.41
2023-04-15T20:42:43.691Z,99993.84
2023-04-15T20:45:46.452Z,99993.81
2023-04-15T20:48:49.285Z,100002.53
2023-04-15T20:51:51.969Z,100001.78
2023-04-15T20:54:55.601Z,100004.50
2023-04-15T20:57:59.094Z,100010.03
2023-04-15T21:01:02.319Z,100012.72
2023-04-15T21:04:05.139Z,100010.88
2023-04-15T21:07:07.999Z,100018.62
2023-04-15T21:10:10.926Z,100017.97
2023-04-15T21:13:15.337Z,100024.19
2023-04-15T21:16:18.099Z,100028.25
2023-04-15T21:19:20.956Z,100031.06
2023-04-15T21:22:23.504Z,100026.97
2023-04-15T21:25:26.319Z,100039.06
2023-04-15T21:28:29.872Z,100045.13
2023-04-15T21:31:32.783Z,100043.69
2023-04-15T21:34:35.546Z,100051.44
2023-04-15T21:37:38.598Z,100053.25
2023-04-15T21:40:41.398Z,100061.13
2023-04-15T21:43:44.399Z,100060.97
2023-04-15T21:46:47.141Z,100061.69
2023-04-15T21:49:50.793Z,100064.22
2023-04-15T21:52:53.495Z,100062.59
2023-04-15T21:55:56.492Z,100063.53
2023-04-15T21:58:59.137Z,100065.44
2023-04-15T22:02:02.359Z,100066.59
2023-04-15T22:05:06.909Z,100066.66
2023-04-15T22:08:09.518Z,100068.50
2023-04-15T22:11:21.562Z,100071.25
2023-04-15T22:14:24.302Z,100083.34
2023-04-15T22:17:27.746Z,100085.06
2023-04-15T22:20:30.702Z,100085.03
2023-04-15T22:23:33.545Z,100091.87
2023-04-15T22:26:36.130Z,100088.50
2023-04-15T22:29:38.898Z,100088.50
2023-04-15T22:32:41.471Z,100085.06
2023-04-15T22:35:44.303Z,100089.47
2023-04-15T22:38:47.335Z,100091.19
2023-04-15T22:41:50.365Z,100091.25
2023-04-15T22:44:53.101Z,100092.88
2023-04-15T22:47:55.950Z,100089.53
2023-04-15T22:50:58.618Z,100095.47
2023-04-15T22:54:01.822Z,100095.56
2023-04-15T22:57:04.471Z,100091.97
2023-04-15T23:00:08.076Z,100095.59
2023-04-15T23:03:11.066Z,100093.00
2023-04-15T23:06:14.113Z,100094.81
2023-04-15T23:09:16.659Z,100094.06
2023-04-15T23:12:19.580Z,100098.37
2023-04-15T23:15:22.507Z,100095.75
2023-04-15T23:18:25.770Z,100093.94
2023-04-15T23:21:28.421Z,100096.56
2023-04-15T23:24:31.822Z,100098.97
2023-04-15T23:27:34.935Z,100097.25
2023-04-15T23:30:38.171Z,100096.25
2023-04-15T23:33:40.812Z,100100.50
2023-04-15T23:36:43.742Z,100101.50
2023-04-15T23:39:46.451Z,100099.88
2023-04-15T23:42:49.643Z,100106.75
2023-04-15T23:45:52.634Z,100110.38
2023-04-15T23:48:55.450Z,100109.66
2023-04-15T23:51:58.069Z,100109.66
2023-04-15T23:55:01.365Z,100114.25
2023-04-15T23:58:04.070Z,100121.41
